• Join FlightAware (Why Join?)
  • Login
  • US Flag 
08:13AM EDT


 

Airport Tracker/Info


-or-


 

Live Flight TrackerFlight Track Log ✈ N717AN ✈ 02-Jul-2013 ✈ EGLL / LHR - KJFK

Flight Track Log - Related Links

Times and Time Zones

All times are in EDT time to prevent confusion due to time zone crossing. See the N717AN flight status page for this flight to view local times or setup timezone preferences in your user account.

Time Position Orientation Groundspeed Altitude Reporting Facility
EDT Latitude Longitude Course Direction KTS MPH feet Rate Location/Type
05:49AM 51.4680 -0.4420 90° East 13 15  Level FlightAware
05:50AM 51.4680 -0.4380 90° East 15 17 240 Level FlightAware
05:51AM 51.4680 -0.4370 90° East 13 15 240 Level FlightAware
05:54AM 51.5429 -0.8847 290° West  Level FlightAware Approximate
05:55AM 51.5748 -1.0528 286° West  Level FlightAware Approximate
05:56AM 51.5999 -1.2239 282° West  Level FlightAware Approximate
05:57AM 51.6333 -1.3702 270° West  Level FlightAware Approximate
05:58AM 51.6529 -1.5418 286° West  Level FlightAware Approximate
05:58AM 51.4634 -0.5455 267° West 189 217 2,300  Level FlightAware ADS-B
05:59AM 51.4629 -0.5666 268° West 189 217 2,800 2,040 Climbing FlightAware ADS-B
05:59AM 51.4626 -0.5786 268° West 191 220 3,100 1,500 Climbing FlightAware ADS-B
05:59AM 51.4622 -0.6013 268° West 201 231 3,400 1,080 Climbing FlightAware ADS-B
05:59AM 51.4619 -0.6111 267° West 205 236 3,500 1,080 Climbing FlightAware ADS-B
05:59AM 51.4614 -0.6185 264° West 208 239 3,600 1,320 Climbing FlightAware ADS-B
05:59AM 51.4607 -0.6250 260° West 211 243 3,700 1,260 Climbing FlightAware ADS-B
05:59AM 51.4580 -0.6483 259° West 223 257 4,000 1,560 Climbing FlightAware ADS-B
06:00AM 51.4562 -0.6669 261° West 229 264 4,400 1,680 Climbing FlightAware ADS-B
06:00AM 51.4543 -0.6908 263° West 240 276 4,700 1,680 Climbing FlightAware ADS-B
06:00AM 51.4528 -0.7110 263° West 245 282 5,100 2,400 Climbing FlightAware ADS-B
06:00AM 51.4505 -0.7392 263° West 246 283 5,800 2,280 Climbing FlightAware ADS-B
06:01AM 51.4482 -0.7671 262° West 248 285 6,300 2,100 Climbing FlightAware ADS-B
06:01AM 51.4457 -0.7950 262° West 250 288 6,900 2,400 Climbing FlightAware ADS-B
06:01AM 51.4435 -0.8220 263° West 252 290 7,500 2,160 Climbing FlightAware ADS-B
06:01AM 51.4412 -0.8504 263° West 257 296 8,000 2,100 Climbing FlightAware ADS-B
06:02AM 51.4388 -0.8788 262° West 258 297 8,600 2,280 Climbing FlightAware ADS-B
06:02AM 51.4362 -0.9088 262° West 259 298 9,200 2,280 Climbing FlightAware ADS-B
06:02AM 51.4340 -0.9380 263° West 261 300 9,800 2,460 Climbing FlightAware ADS-B
06:02AM 51.4317 -0.9638 262° West 258 297 10,400 2,220 Climbing FlightAware ADS-B
06:02AM 51.4300 -0.9850 263° West 266 306 10,700 1,740 Climbing FlightAware ADS-B
06:03AM 51.4301 -0.9986 271° West 274 315 10,900 960 Climbing FlightAware ADS-B
06:03AM 51.4308 -1.0074 277° West 280 322 10,900 720 Level FlightAware ADS-B
06:03AM 51.4319 -1.0154 282° West 285 328 11,000 1,500 Climbing FlightAware ADS-B
06:03AM 51.4335 -1.0243 286° West 291 335 11,100 1,320 Climbing FlightAware ADS-B
06:03AM 51.4523 -1.0880 295° West 327 376 11,800 1,860 Climbing FlightAware ADS-B
06:04AM 51.4747 -1.1570 298° West 345 397 13,000 2,160 Climbing FlightAware ADS-B
06:04AM 51.4895 -1.2049 296° West 351 404 13,700 1,140 Climbing FlightAware ADS-B
06:05AM 51.5093 -1.2765 294° West 353 406 14,000 360 Climbing FlightAware ADS-B
06:05AM 51.5285 -1.3475 294° West 346 398 14,100 480 Climbing FlightAware ADS-B
06:06AM 51.5482 -1.4195 294° West 347 399 14,500 780 Climbing FlightAware ADS-B
06:06AM 51.5680 -1.4909 294° West 349 402 14,900 960 Climbing FlightAware ADS-B
06:07AM 51.5877 -1.5623 294° West 348 400 15,500 1,740 Climbing FlightAware ADS-B
06:07AM 51.6064 -1.6396 291° West 358 412 16,700 2,700 Climbing FlightAware ADS-B
06:08AM 51.6240 -1.7156 290° West 354 407 18,300 2,700 Climbing FlightAware ADS-B
06:08AM 51.6419 -1.7909 291° West 362 417 19,500 2,340 Climbing FlightAware ADS-B
06:09AM 51.6598 -1.8678 291° West 366 421 20,700 1,920 Climbing FlightAware ADS-B
06:09AM 51.6787 -1.9457 291° West 379 436 21,500 2,160 Climbing FlightAware ADS-B
06:10AM 51.6996 -2.0332 291° West 378 435 23,000 2,460 Climbing FlightAware ADS-B
06:10AM 51.7128 -2.0901 291° West 379 436 23,800 2,040 Climbing FlightAware ADS-B
06:11AM 51.7334 -2.1797 290° West 385 443 24,900 1,800 Climbing FlightAware ADS-B
06:11AM 51.7500 -2.2510 291° West 391 450 25,600 1,560 Climbing FlightAware ADS-B
06:11AM 51.7572 -2.2911 286° West 394 453 26,000 1,320 Climbing FlightAware ADS-B
06:12AM 51.7606 -2.3295 278° West 401 461 26,200 780 Climbing FlightAware ADS-B
06:12AM 51.7618 -2.3774 272° West 412 474 26,400 600 Climbing FlightAware ADS-B
06:12AM 51.7612 -2.4137 268° West 419 482 26,500 780 Climbing FlightAware ADS-B
06:13AM 51.7558 -2.5142 265° West 435 501 27,000 1,020 Climbing FlightAware ADS-B
06:13AM 51.7497 -2.6149 264° West 445 512 27,600 1,320 Climbing FlightAware ADS-B
06:14AM 51.7427 -2.7050 263° West 453 521 28,300 1,320 Climbing FlightAware ADS-B
06:14AM 51.7255 -2.8362 258° West 464 534 29,100 1,560 Climbing FlightAware ADS-B
06:15AM 51.7112 -2.9424 258° West 461 531 30,200 1,920 Climbing FlightAware ADS-B
06:15AM 51.6991 -3.0438 259° West 460 529 31,100 1,860 Climbing FlightAware ADS-B
06:16AM 51.6849 -3.1628 259° West 455 524 32,300 1,920 Climbing FlightAware ADS-B
06:16AM 51.6706 -3.2778 259° West 445 512 33,400 1,320 Climbing FlightAware ADS-B
06:17AM 51.6575 -3.3784 258° West 447 514 33,800 480 Climbing FlightAware ADS-B
06:18AM 51.6400 -3.5160 258° West 443 510 34,000 120 Climbing FlightAware
06:18AM 51.6210 -3.6660 259° West 438 504 34,000  Level FlightAware
06:19AM 51.6040 -3.7930 258° West 438 504 34,000 -120 Level FlightAware
06:20AM 51.5903 -3.8972 258° West 482 555 33,900  Descending FlightAware UK
06:20AM 51.5870 -3.9260 258° West 438 504 34,000 60 Climbing FlightAware
06:21AM 51.5680 -4.0620 257° West 438 504 34,000  Level FlightAware
06:21AM 51.5420 -4.1990 253° West 443 510 34,000  Level FlightAware
06:22AM 51.5100 -4.3240 248° West 445 512 34,000  Level FlightAware
06:23AM 51.4800 -4.4400 247° West 447 514 34,000  Level FlightAware
06:23AM 51.4450 -4.5740 247° West 447 514 34,000  Level FlightAware
06:24AM 51.4129 -4.6970 247° West 447 514 34,000  Level FlightAware ADS-B
06:25AM 51.3820 -4.8156 247° West 448 516 34,000 -120 Level FlightAware ADS-B
06:25AM 51.3518 -4.9305 247° West 484 557 33,900  Descending FlightAware UK
06:25AM 51.3490 -4.9420 247° West 448 516 34,000  Climbing FlightAware
06:26AM 51.3295 -5.0426 247° West 484 557 33,900  Descending FlightAware UK
06:26AM 51.3260 -5.0750 247° West 443 510 34,000 120 Climbing FlightAware
06:27AM 51.3140 -5.1950 261° West 443 510 34,000  Level FlightAware
06:27AM 51.3010 -5.3230 261° West 442 509 34,000  Level FlightAware
06:28AM 51.2880 -5.4530 261° West 442 509 34,000  Level FlightAware
06:29AM 51.2766 -5.5641 261° West 484 557 34,000  Level FlightAware UK
06:29AM 51.2750 -5.5740 261° West 443 510 34,000  Level FlightAware
06:29AM 51.2590 -5.7300 261° West 443 510 34,000  Level FlightAware
06:30AM 51.2459 -5.8533 261° West 486 559 34,000  Level FlightAware UK
06:30AM 51.2460 -5.8580 261° West 442 509 34,000  Level FlightAware
06:31AM 51.2340 -5.9683 261° West 486 559 34,000  Level FlightAware UK
06:31AM 51.2310 -6.0010 261° West 442 509 34,000  Level FlightAware
06:31AM 51.2170 -6.1300 260° West 443 510 34,000  Level FlightAware
06:32AM 51.2030 -6.2567 260° West 486 559 34,000  Level FlightAware UK
06:32AM 51.2030 -6.2550 260° West 441 507 34,000  Level FlightAware
06:33AM 51.1910 -6.3640 260° West 439 505 34,000 -120 Level FlightAware
06:33AM 51.1755 -6.5052 260° West 484 557 33,900  Descending FlightAware UK
06:33AM 51.1750 -6.5120 260° West 439 505 34,000 120 Climbing FlightAware
06:34AM 51.1610 -6.6390 260° West 438 504 34,000  Level FlightAware
06:35AM 51.1460 -6.7670 259° West 437 503 34,000  Level FlightAware
06:35AM 51.1333 -6.8859 259° West 484 557 34,000  Level FlightAware UK
06:36AM 51.1310 -6.9030 259° West 437 503 34,000  Level FlightAware
06:36AM 51.1180 -7.0200 260° West 435 501 34,000  Level FlightAware
06:37AM 51.1030 -7.1600 260° West 436 502 34,000 -120 Level FlightAware
06:38AM 51.0895 -7.2825 260° West 484 557 33,900  Descending FlightAware UK
06:38AM 51.0910 -7.2770 260° West 437 503 34,000  Climbing FlightAware
06:38AM 51.0804 -7.3771 260° West 486 559 33,900  Descending FlightAware UK
06:38AM 51.0750 -7.4290 260° West 436 502 34,000  Climbing FlightAware
06:39AM 51.0607 -7.5660 260° West 482 555 33,900  Descending FlightAware UK
06:39AM 51.0600 -7.5700 260° West 435 501 34,000 120 Climbing FlightAware
06:40AM 51.0470 -7.6910 260° West 435 501 34,000 -120 Level FlightAware
06:40AM 51.0323 -7.8299 260° West 484 557 33,900  Descending FlightAware UK
06:40AM 51.0310 -7.8340 260° West 435 501 34,000 120 Climbing FlightAware
06:41AM 51.0205 -7.9429 260° West 486 559 34,000  Level FlightAware UK
06:41AM 51.0180 -7.9490 260° West 435 501 34,000  Level FlightAware
06:42AM 51.0050 -8.0670 260° West 433 498 34,000  Level FlightAware
06:43AM 50.9870 -8.2260 260° West 432 497 34,000  Level FlightAware
06:43AM 50.9757 -8.3364 260° West 486 559 34,000  Level FlightAware UK
06:43AM 50.9730 -8.3480 260° West 433 498 34,000  Level FlightAware
06:44AM 50.9570 -8.4840 259° West 429 494 34,000  Level FlightAware
06:45AM 50.9418 -8.6149 259° West 480 552 34,000  Level FlightAware UK
06:45AM 50.9390 -8.6380 259° West 429 494 34,000  Level FlightAware
06:45AM 50.9240 -8.7690 260° West 429 494 34,000  Level FlightAware
06:46AM 50.9110 -8.8750 260° West 426 490 34,000  Level FlightAware
06:46AM 50.9090 -8.8920 260° West 488 562 34,000  Level FlightAware UK
06:47AM 50.8963 -8.9833 260° West 484 557 34,000  Level FlightAware UK
06:47AM 50.8930 -9.0260 260° West 422 486 34,000  Level FlightAware
06:48AM 50.8800 -9.1360 259° West 422 486 34,000  Level FlightAware
06:48AM 50.8630 -9.2670 258° West 423 487 34,000  Level FlightAware
06:49AM 50.8470 -9.3980 259° West 423 487 34,000  Level FlightAware
06:50AM 50.8330 -9.5150 259° West 423 487 34,000  Level FlightAware
06:50AM 50.8180 -9.6280 258° West 422 486 34,000  Level FlightAware
06:51AM 50.8020 -9.7570 259° West 423 487 34,000  Level FlightAware
06:52AM 50.7880 -9.8660 259° West 423 487 34,000  Level FlightAware
06:52AM 50.7670 -10.0230 258° West 424 488 34,000  Level FlightAware
06:53AM 50.7470 -10.1730 258° West 424 488 34,000  Level FlightAware
06:54AM 50.7290 -10.3160 259° West 424 488 34,000  Level FlightAware
06:55AM 50.7140 -10.4290 258° West 425 489 34,000  Level FlightAware
06:55AM 50.6990 -10.5350 257° West 425 489 34,000  Level FlightAware
06:56AM 50.6830 -10.6530 258° West 425 489 34,000  Level FlightAware
06:57AM 50.6670 -10.7720 258° West 425 489 34,000  Level FlightAware
06:57AM 50.6430 -10.9430 258° West 414 476 34,000  Level FlightAware
06:58AM 50.6270 -11.0560 257° West 413 475 34,000  Level FlightAware
06:59AM 50.6130 -11.1530 257° West 413 475 34,000  Level FlightAware
06:59AM 50.6000 -11.2430 257° West 413 475 34,000  Level FlightAware
07:00AM 50.5820 -11.3630 257° West 413 475 34,000  Level FlightAware
07:01AM 50.5690 -11.4500 257° West 413 475 34,000  Level FlightAware
07:02AM 50.5520 -11.5690 257° West 413 475 34,000  Level FlightAware
07:02AM 50.5380 -11.6620 257° West 413 475 34,000  Level FlightAware
07:03AM 50.5160 -11.8130 257° West 413 475 34,000  Level FlightAware
07:04AM 50.5020 -11.9050 257° West 413 475 34,000  Level FlightAware
07:05AM 50.4850 -12.0250 257° West 413 475 34,000  Level FlightAware
07:05AM 50.4720 -12.1120 257° West 413 475 34,000  Level FlightAware
07:06AM 50.4540 -12.2340 257° West 413 475 34,000  Level FlightAware
07:07AM 50.4410 -12.3260 258° West 413 475 34,000  Level FlightAware
07:07AM 50.4230 -12.4420 256° West 413 475 34,000  Level FlightAware
07:10AM 50.4692 -12.8064 281° West  Level Estimated
07:11AM 50.4916 -12.9859 281° West  Level Estimated
07:12AM 50.5136 -13.1655 281° West  Level Estimated
07:13AM 50.5354 -13.3453 281° West  Level Estimated
07:14AM 50.5569 -13.5253 281° West  Level Estimated
07:15AM 50.5781 -13.7054 281° West  Level Estimated
07:16AM 50.5991 -13.8857 280° West  Level Estimated
07:17AM 50.6197 -14.0661 280° West  Level Estimated
07:18AM 50.6401 -14.2467 280° West  Level Estimated
07:19AM 50.6602 -14.4275 280° West  Level Estimated
07:20AM 50.6801 -14.6084 280° West  Level Estimated
07:21AM 50.6996 -14.7895 280° West  Level Estimated
07:22AM 50.7189 -14.9707 280° West  Level Estimated
07:23AM 50.7377 -15.1504 279° West  Level Estimated
07:24AM 50.7562 -15.3303 279° West  Level Estimated
07:25AM 50.7745 -15.5103 279° West  Level Estimated
07:26AM 50.7925 -15.6904 279° West  Level Estimated
07:27AM 50.8102 -15.8706 279° West  Level Estimated
07:28AM 50.8276 -16.0510 279° West  Level Estimated
07:29AM 50.8447 -16.2316 279° West  Level Estimated
07:30AM 50.8616 -16.4122 278° West  Level Estimated
07:31AM 50.8782 -16.5930 278° West  Level Estimated
07:32AM 50.8945 -16.7740 278° West  Level Estimated
07:33AM 50.9105 -16.9550 278° West  Level Estimated
07:34AM 50.9263 -17.1362 278° West  Level Estimated
07:35AM 50.9418 -17.3175 278° West  Level Estimated
07:36AM 50.9570 -17.4989 278° West  Level Estimated
07:37AM 50.9719 -17.6804 277° West  Level Estimated
07:38AM 50.9865 -17.8621 277° West  Level Estimated
07:39AM 51.0008 -18.0438 277° West  Level Estimated
07:40AM 51.0149 -18.2257 277° West  Level Estimated
07:41AM 51.0287 -18.4077 277° West  Level Estimated
07:42AM 51.0422 -18.5898 277° West  Level Estimated
07:43AM 51.0554 -18.7719 277° West  Level Estimated
07:44AM 51.0683 -18.9543 277° West  Level Estimated
07:45AM 51.0817 -19.1476 276° West  Level Estimated
07:46AM 51.0948 -19.3412 276° West  Level Estimated
07:47AM 51.1076 -19.5348 276° West  Level Estimated
07:48AM 51.1200 -19.7285 276° West  Level Estimated
07:49AM 51.1321 -19.9223 276° West  Level Estimated
07:50AM 51.1439 -20.1163 276° West  Level Estimated
07:51AM 51.1554 -20.3103 275° West  Level Estimated
07:51AM 50.0000 -20.0000 249° West 443 510 34,000  Level ETMS Enhanced Traffic Management System
07:52AM 51.1665 -20.5039 275° West  Level Estimated
07:53AM 51.1773 -20.6976 275° West  Level Estimated
07:54AM 51.1878 -20.8913 275° West  Level Estimated
07:55AM 51.1980 -21.0852 275° West  Level Estimated
07:56AM 51.2079 -21.2791 275° West  Level Estimated
07:57AM 49.7357 -21.0706 249° West 443 510 34,000  Level FlightAware Transoceanic
07:58AM 49.6907 -21.2478 248° West 443 510 34,000  Level FlightAware Transoceanic
07:59AM 49.6454 -21.4248 248° West 443 510 34,000  Level FlightAware Transoceanic
08:00AM 49.5998 -21.6014 248° West 443 510 34,000  Level FlightAware Transoceanic
08:01AM 49.5540 -21.7777 248° West 443 510 34,000  Level FlightAware Transoceanic
08:02AM 49.5079 -21.9537 248° West 443 510 34,000  Level FlightAware Transoceanic
08:03AM 49.4616 -22.1293 248° West 443 510 34,000  Level FlightAware Transoceanic
08:04AM 49.4150 -22.3046 248° West 443 510 34,000  Level FlightAware Transoceanic
08:05AM 49.3681 -22.4796 248° West 443 510 34,000  Level FlightAware Transoceanic
08:06AM 49.3209 -22.6542 247° West 443 510 34,000  Level FlightAware Transoceanic
08:07AM 49.2735 -22.8285 247° West 443 510 34,000  Level FlightAware Transoceanic
08:08AM 49.2258 -23.0024 247° West 443 510 34,000  Level FlightAware Transoceanic
08:09AM 49.1779 -23.1761 247° West 443 510 34,000  Level FlightAware Transoceanic
08:10AM 49.1297 -23.3493 247° West 443 510 34,000  Level FlightAware Transoceanic
08:11AM 49.0813 -23.5223 247° West 443 510 34,000  Level FlightAware Transoceanic
08:12AM 49.0326 -23.6949 247° West 443 510 34,000  Level FlightAware Transoceanic
08:13AM 48.9836 -23.8672 247° West 443 510 34,000  Level FlightAware Transoceanic
08:14AM 48.9344 -24.0391 246° West 443 510 34,000  Level FlightAware Transoceanic
08:15AM 48.8849 -24.2107 246° West 443 510 34,000  Level FlightAware Transoceanic
08:16AM 48.8352 -24.3820 246° West 443 510 34,000  Level FlightAware Transoceanic
08:17AM 48.7852 -24.5529 246° West 443 510 34,000  Level FlightAware Transoceanic
08:18AM 48.7350 -24.7234 246° West 443 510 34,000  Level FlightAware Transoceanic
08:19AM 48.6845 -24.8937 246° West 443 510 34,000  Level FlightAware Transoceanic
08:20AM 48.6338 -25.0636 246° West 443 510 34,000  Level FlightAware Transoceanic
08:21AM 48.5828 -25.2331 245° Southwest 443 510 34,000  Level FlightAware Transoceanic
08:22AM 48.5315 -25.4023 245° Southwest 443 510 34,000  Level FlightAware Transoceanic
08:23AM 48.4800 -25.5712 245° Southwest 443 510 34,000  Level FlightAware Transoceanic
08:24AM 48.4283 -25.7397 245° Southwest 443 510 34,000  Level FlightAware Transoceanic
08:25AM 48.3764 -25.9079 245° Southwest 443 510 34,000  Level FlightAware Transoceanic
08:26AM 48.3241 -26.0757 245° Southwest 443 510 34,000  Level FlightAware Transoceanic
08:27AM 48.2717 -26.2432 245° Southwest 443 510 34,000  Level FlightAware Transoceanic
08:28AM 48.2190 -26.4103 245° Southwest 443 510 34,000  Level FlightAware Transoceanic
08:29AM 48.1660 -26.5771 244° Southwest 443 510 34,000  Level FlightAware Transoceanic
08:30AM 48.1128 -26.7435 244° Southwest 443 510 34,000  Level FlightAware Transoceanic
08:31AM 48.0594 -26.9097 244° Southwest 443 510 34,000  Level FlightAware Transoceanic
08:32AM 48.0057 -27.0754 244° Southwest 443 510 34,000  Level FlightAware Transoceanic
08:33AM 47.9518 -27.2408 244° Southwest 443 510 34,000  Level FlightAware Transoceanic
08:34AM 47.8977 -27.4059 244° Southwest 443 510 34,000  Level FlightAware Transoceanic
08:35AM 47.8433 -27.5706 244° Southwest 443 510 34,000  Level FlightAware Transoceanic
08:36AM 47.7887 -27.7350 244° Southwest 443 510 34,000  Level FlightAware Transoceanic
08:37AM 47.7339 -27.8990 243° Southwest 443 510 34,000  Level FlightAware Transoceanic
08:38AM 47.6788 -28.0627 243° Southwest 443 510 34,000  Level FlightAware Transoceanic
08:39AM 47.6235 -28.2261 243° Southwest 443 510 34,000  Level FlightAware Transoceanic
08:40AM 47.5679 -28.3891 243° Southwest 443 510 34,000  Level FlightAware Transoceanic
08:41AM 47.5122 -28.5517 243° Southwest 443 510 34,000  Level FlightAware Transoceanic
08:42AM 47.4562 -28.7140 243° Southwest 443 510 34,000  Level FlightAware Transoceanic
08:43AM 47.3999 -28.8760 243° Southwest 443 510 34,000  Level FlightAware Transoceanic
08:44AM 47.3435 -29.0376 243° Southwest 443 510 34,000  Level FlightAware Transoceanic
08:45AM 47.2868 -29.1989 243° Southwest 443 510 34,000  Level FlightAware Transoceanic
08:46AM 47.2299 -29.3598 242° Southwest 443 510 34,000  Level FlightAware Transoceanic
08:47AM 47.1727 -29.5203 242° Southwest 443 510 34,000  Level FlightAware Transoceanic
08:48AM 47.1154 -29.6806 242° Southwest 443 510 34,000  Level FlightAware Transoceanic
08:49AM 47.0578 -29.8405 242° Southwest 443 510 34,000  Level FlightAware Transoceanic
08:50AM 47.0013 -29.9964 242° Southwest  Level FlightAware Approximate
08:51AM 46.9445 -30.1520 242° Southwest  Level FlightAware Approximate
08:52AM 47.0001 -30.1683 270° West  Level FlightAware Approximate
08:53AM 46.9999 -30.3448 270° West  Level FlightAware Approximate
08:54AM 46.9995 -30.5213 270° West  Level FlightAware Approximate
08:55AM 46.9988 -30.6978 270° West  Level FlightAware Approximate
08:56AM 46.9978 -30.8743 270° West  Level FlightAware Approximate
08:57AM 46.9966 -31.0508 269° West  Level FlightAware Approximate
08:58AM 46.9951 -31.2272 269° West  Level FlightAware Approximate
08:59AM 46.9933 -31.4037 269° West  Level FlightAware Approximate
09:00AM 46.9912 -31.5801 269° West  Level FlightAware Approximate
09:01AM 46.9889 -31.7566 269° West  Level FlightAware Approximate
09:02AM 46.9863 -31.9330 269° West  Level FlightAware Approximate
09:03AM 46.9834 -32.1094 269° West  Level FlightAware Approximate
09:04AM 46.9803 -32.2858 269° West  Level FlightAware Approximate
09:05AM 46.9769 -32.4621 268° West  Level FlightAware Approximate
09:06AM 46.9732 -32.6384 268° West  Level FlightAware Approximate
09:07AM 46.9692 -32.8148 268° West  Level FlightAware Approximate
09:08AM 46.9650 -32.9910 268° West  Level FlightAware Approximate
09:09AM 46.9605 -33.1673 268° West  Level FlightAware Approximate
09:10AM 46.9557 -33.3435 268° West  Level FlightAware Approximate
09:11AM 46.9507 -33.5197 268° West  Level FlightAware Approximate
09:12AM 46.9454 -33.6958 268° West  Level FlightAware Approximate
09:13AM 46.9398 -33.8720 267° West  Level FlightAware Approximate
09:14AM 46.9340 -34.0480 267° West  Level FlightAware Approximate
09:15AM 46.9282 -34.2241 267° West  Level FlightAware Approximate
09:16AM 46.9324 -34.4024 272° West  Level Estimated
09:17AM 46.9364 -34.5807 272° West  Level Estimated
09:18AM 46.9401 -34.7590 272° West  Level Estimated
09:19AM 46.9435 -34.9373 272° West  Level Estimated
09:20AM 46.9466 -35.1157 272° West  Level Estimated
09:21AM 46.9495 -35.2941 271° West  Level Estimated
09:22AM 46.9521 -35.4725 271° West  Level Estimated
09:23AM 46.9544 -35.6509 271° West  Level Estimated
09:24AM 46.9564 -35.8293 271° West  Level Estimated
09:25AM 46.9582 -36.0078 271° West  Level Estimated
09:26AM 46.9596 -36.1862 271° West  Level Estimated
09:27AM 46.9608 -36.3647 271° West  Level Estimated
09:28AM 46.9618 -36.5431 270° West  Level Estimated
09:29AM 46.9624 -36.7216 270° West  Level Estimated
09:30AM 46.9628 -36.9001 270° West  Level Estimated
09:31AM 46.9628 -37.0786 270° West  Level Estimated
09:32AM 46.9627 -37.2570 270° West  Level Estimated
09:33AM 46.9622 -37.4355 270° West  Level Estimated
09:34AM 46.9614 -37.6140 270° West  Level Estimated
09:35AM 46.9604 -37.7925 270° West  Level Estimated
09:36AM 46.9591 -37.9709 269° West  Level Estimated
09:37AM 46.9576 -38.1494 269° West  Level Estimated
09:38AM 46.9557 -38.3278 269° West  Level Estimated
09:39AM 46.9536 -38.5062 269° West  Level Estimated
09:40AM 46.9512 -38.6846 269° West  Level Estimated
09:41AM 46.9485 -38.8630 269° West  Level Estimated
09:42AM 46.9455 -39.0414 269° West  Level Estimated
09:43AM 46.9423 -39.2197 269° West  Level Estimated
09:44AM 46.9388 -39.3981 268° West  Level Estimated
09:45AM 46.9350 -39.5764 268° West  Level Estimated
09:46AM 46.9309 -39.7547 268° West  Level Estimated
09:47AM 46.9265 -39.9329 268° West  Level Estimated
09:48AM 46.9219 -40.1113 268° West  Level Estimated
09:49AM 46.9170 -40.2896 268° West  Level Estimated
09:50AM 46.9118 -40.4680 268° West  Level Estimated
09:51AM 46.9064 -40.6462 267° West  Level Estimated
09:52AM 46.9006 -40.8245 267° West  Level Estimated
09:53AM 46.8946 -41.0027 267° West  Level Estimated
09:54AM 46.8883 -41.1808 267° West  Level Estimated
09:55AM 46.8818 -41.3590 267° West  Level Estimated
09:56AM 46.8749 -41.5370 267° West  Level Estimated
09:57AM 46.8678 -41.7151 267° West  Level Estimated
09:58AM 46.8604 -41.8930 267° West  Level Estimated
09:58AM 43.8500 -42.2000 264° West 488 562 35,000  Level New York Oceanic (ODAPS)
09:59AM 46.8528 -42.0710 266° West  Level Estimated
10:00AM 46.8448 -42.2489 266° West  Level Estimated
10:01AM 46.8366 -42.4267 266° West  Level Estimated
10:02AM 46.8281 -42.6044 266° West  Level Estimated
10:03AM 46.8193 -42.7822 266° West  Level Estimated
10:04AM 43.7613 -43.3268 263° West 488 562 35,000  Level FlightAware Transoceanic
10:05AM 43.7454 -43.5143 263° West 488 562 35,000  Level FlightAware Transoceanic
10:06AM 43.7292 -43.7016 263° West 488 562 35,000  Level FlightAware Transoceanic
10:07AM 43.7128 -43.8889 263° West 488 562 35,000  Level FlightAware Transoceanic
10:08AM 43.6960 -44.0760 263° West 488 562 35,000  Level FlightAware Transoceanic
10:09AM 43.6789 -44.2631 263° West 488 562 35,000  Level FlightAware Transoceanic
10:10AM 43.6615 -44.4500 263° West 488 562 35,000  Level FlightAware Transoceanic
10:11AM 43.6438 -44.6369 262° West 488 562 35,000  Level FlightAware Transoceanic
10:11AM 43.6333 -44.8333 262° West 485 558 35,000  Level New York Oceanic (ODAPS)
10:12AM 43.6258 -44.8236 262° West 488 562 35,000  Level FlightAware Transoceanic
10:13AM 43.6075 -45.0102 262° West 488 562 35,000  Level FlightAware Transoceanic
10:14AM 43.5889 -45.1967 262° West 488 562 35,000  Level FlightAware Transoceanic
10:15AM 43.5700 -45.3831 262° West 488 562 35,000  Level FlightAware Transoceanic
10:16AM 43.5508 -45.5694 262° West 488 562 35,000  Level FlightAware Transoceanic
10:17AM 43.5312 -45.7555 262° West 488 562 35,000  Level FlightAware Transoceanic
10:18AM 43.5173 -45.9493 261° West 485 558 35,000  Level FlightAware Transoceanic
10:19AM 43.4969 -46.1348 261° West 485 558 35,000  Level FlightAware Transoceanic
10:20AM 43.4762 -46.3203 261° West 485 558 35,000  Level FlightAware Transoceanic
10:21AM 43.4552 -46.5056 261° West 485 558 35,000  Level FlightAware Transoceanic
10:22AM 43.4339 -46.6908 261° West 485 558 35,000  Level FlightAware Transoceanic
10:23AM 43.4123 -46.8758 261° West 485 558 35,000  Level FlightAware Transoceanic
10:24AM 43.3904 -47.0607 261° West 485 558 35,000  Level FlightAware Transoceanic
10:25AM 43.3682 -47.2455 261° West 485 558 35,000  Level FlightAware Transoceanic
10:25AM 43.3500 -47.3667 261° West 471 542 35,000  Level New York Oceanic (ODAPS)
10:26AM 43.3457 -47.4301 260° West 485 558 35,000  Level FlightAware Transoceanic
10:27AM 43.3230 -47.6147 260° West 485 558 35,000  Level FlightAware Transoceanic
10:28AM 43.2999 -47.7990 260° West 485 558 35,000  Level FlightAware Transoceanic
10:29AM 43.2765 -47.9832 260° West 485 558 35,000  Level FlightAware Transoceanic
10:30AM 43.2528 -48.1673 260° West 485 558 35,000  Level FlightAware Transoceanic
10:31AM 43.2173 -48.4236 260° West 471 542 35,000  Level FlightAware Transoceanic
10:32AM 43.1942 -48.5993 260° West 471 542 35,000  Level FlightAware Transoceanic
10:33AM 43.1708 -48.7749 260° West 471 542 35,000  Level FlightAware Transoceanic
10:34AM 43.1472 -48.9503 259° West 471 542 35,000  Level FlightAware Transoceanic
10:35AM 43.1234 -49.1256 259° West 471 542 35,000  Level FlightAware Transoceanic
10:36AM 43.0992 -49.3008 259° West 471 542 35,000  Level FlightAware Transoceanic
10:37AM 43.0748 -49.4758 259° West 471 542 35,000  Level FlightAware Transoceanic
10:38AM 43.0502 -49.6507 259° West 471 542 35,000  Level FlightAware Transoceanic
10:39AM 43.0252 -49.8254 259° West 471 542 35,000  Level FlightAware Transoceanic
10:39AM 43.0333 -49.7833 258° West 459 528 35,000  Level New York Oceanic (ODAPS)
10:40AM 43.0000 -50.0000 273° West 471 542 35,000  Level FlightAware Transoceanic
10:40AM 43.0000 -50.0000 273° West 457 526 35,000  Level New York Oceanic (ODAPS)
10:41AM 43.0070 -50.1670 273° West 471 542 35,000  Level FlightAware Transoceanic
10:42AM 43.0138 -50.3340 273° West 471 542 35,000  Level FlightAware Transoceanic
10:43AM 43.0204 -50.5010 273° West 471 542 35,000  Level FlightAware Transoceanic
10:44AM 43.0266 -50.6681 273° West 471 542 35,000  Level FlightAware Transoceanic
10:45AM 43.0327 -50.8352 273° West 459 528 35,000  Level FlightAware Transoceanic
10:46AM 43.0385 -51.0023 273° West 459 528 35,000  Level FlightAware Transoceanic
10:47AM 43.0400 -51.0469 273° West 457 526 35,000  Level FlightAware Transoceanic
10:48AM 43.0458 -51.2215 273° West 457 526 35,000  Level FlightAware Transoceanic
10:49AM 43.0512 -51.3962 272° West 457 526 35,000  Level FlightAware Transoceanic
10:50AM 43.0564 -51.5709 272° West 457 526 35,000  Level FlightAware Transoceanic
10:51AM 43.0614 -51.7456 272° West 457 526 35,000  Level FlightAware Transoceanic
10:52AM 43.0661 -51.9203 272° West 457 526 35,000  Level FlightAware Transoceanic
10:53AM 43.0705 -52.0951 272° West 457 526 35,000 720 Level FlightAware Transoceanic
10:53AM 43.0667 -52.1500 272° West 448 516 36,000  Climbing New York Oceanic (ODAPS)
10:54AM 43.0746 -52.2698 272° West 457 526 35,000 -600 Descending FlightAware Transoceanic
10:55AM 43.0785 -52.4446 272° West 457 526 35,000  Level FlightAware Transoceanic
10:56AM 43.0821 -52.6195 272° West 457 526 35,000  Level FlightAware Transoceanic
10:57AM 43.0855 -52.7943 271° West 457 526 35,000  Level FlightAware Transoceanic
10:58AM 43.0886 -52.9692 271° West 457 526 35,000 480 Level FlightAware Transoceanic
10:59AM 43.0873 -53.1584 271° West 448 516 36,000 480 Climbing FlightAware Transoceanic
11:00AM 43.0899 -53.3265 271° West 448 516 36,000  Level FlightAware Transoceanic
11:01AM 43.0923 -53.4947 271° West 448 516 36,000  Level FlightAware Transoceanic
11:02AM 43.0944 -53.6628 271° West 448 516 36,000  Level FlightAware Transoceanic
11:03AM 43.0962 -53.8310 271° West 448 516 36,000  Level FlightAware Transoceanic
11:04AM 43.0978 -53.9992 271° West 448 516 36,000  Level FlightAware Transoceanic
11:05AM 43.0992 -54.1674 271° West 448 516 36,000  Level FlightAware Transoceanic
11:06AM 43.1003 -54.3355 270° West 448 516 36,000  Level FlightAware Transoceanic
11:07AM 43.1011 -54.5037 270° West 448 516 36,000  Level FlightAware Transoceanic
11:07AM 43.1000 -54.4333 270° West 441 507 36,000  Level New York Oceanic (ODAPS)
11:08AM 43.1018 -54.6719 270° West 448 516 36,000  Level FlightAware Transoceanic
11:09AM 43.1021 -54.8401 270° West 448 516 36,000  Level FlightAware Transoceanic
11:10AM 43.1022 -55.0083 270° West 448 516 36,000  Level FlightAware Transoceanic
11:11AM 43.1021 -55.1765 270° West 448 516 36,000  Level FlightAware Transoceanic
11:12AM 43.1018 -55.3447 270° West 448 516 36,000  Level FlightAware Transoceanic
11:13AM 43.1009 -55.4146 270° West 441 507 36,000  Level FlightAware Transoceanic
11:14AM 43.1003 -55.5781 270° West 441 507 36,000  Level FlightAware Transoceanic
11:15AM 43.0994 -55.7417 270° West 441 507 36,000  Level FlightAware Transoceanic
11:16AM 43.0983 -55.9052 269° West 441 507 36,000  Level FlightAware Transoceanic
11:17AM 43.0969 -56.0687 269° West 441 507 36,000  Level FlightAware Transoceanic
11:18AM 43.0953 -56.2322 269° West 441 507 36,000  Level FlightAware Transoceanic
11:19AM 43.0935 -56.3957 269° West 441 507 36,000  Level FlightAware Transoceanic
11:20AM 43.0915 -56.5592 269° West 441 507 36,000  Level FlightAware Transoceanic
11:21AM 43.0892 -56.7227 269° West 441 507 36,000  Level FlightAware Transoceanic
11:21AM 43.1167 -56.8833 268° West 430 495 36,000  Level Moncton Center
11:22AM 43.0867 -56.8862 269° West 441 507 36,000  Level FlightAware Transoceanic
11:22AM 43.1000 -56.7500 268° West 438 504 36,000  Level New York Oceanic (ODAPS)
11:22AM 43.1000 -56.8667 268° West 443 510 36,000  Level New York Oceanic (ODAPS)
11:23AM 43.0839 -57.0496 269° West 441 507 36,000  Level FlightAware Transoceanic
11:23AM 43.1000 -57.2167 268° West 430 495 36,000  Level Moncton Center
11:24AM 43.0809 -57.2131 269° West 441 507 36,000  Level FlightAware Transoceanic
11:24AM 43.0833 -57.4000 263° West 430 495 36,000  Level Moncton Center
11:25AM 43.0777 -57.3765 268° West 441 507 36,000  Level FlightAware Transoceanic
11:25AM 43.0667 -57.5500 261° West 440 506 36,000  Level Moncton Center
11:26AM 43.0743 -57.5399 268° West 441 507 36,000  Level FlightAware Transoceanic
11:26AM 43.0667 -57.7167 270° West 440 506 36,000  Level Moncton Center
11:27AM 43.0706 -57.7033 268° West 441 507 36,000  Level FlightAware Transoceanic
11:27AM 43.0500 -57.9000 263° West 440 506 36,000  Level Moncton Center
11:28AM 43.0500 -58.0667 270° West 450 518 36,000  Level Moncton Center
11:29AM 43.0500 -58.2167 270° West 440 506 36,000  Level Moncton Center
11:31AM 43.0500 -58.5667 270° West 430 495 36,000  Level Moncton Center
11:32AM 43.0333 -58.7333 262° West 440 506 36,000  Level Moncton Center
11:33AM 43.0333 -58.8833 270° West 440 506 36,000  Level Moncton Center
11:34AM 43.0167 -59.0500 262° West 450 518 36,000  Level Moncton Center
11:35AM 43.0167 -59.2333 270° West 450 518 36,000  Level Moncton Center
11:36AM 43.0000 -59.4000 262° West 440 506 36,000  Level Moncton Center
11:37AM 43.0000 -59.5833 270° West 450 518 36,000  Level Moncton Center
11:38AM 43.0000 -59.7333 270° West 450 518 36,000  Level Moncton Center
11:39AM 43.0000 -59.9167 270° West 440 506 36,000  Level Moncton Center
11:40AM 42.9833 -60.0833 262° West 440 506 36,000  Level Moncton Center
11:41AM 42.9500 -60.2500 255° West 450 518 36,000  Level Moncton Center
11:42AM 42.9500 -60.4000 270° West 450 518 36,000  Level Moncton Center
11:43AM 42.9333 -60.5833 263° West 440 506 36,000  Level Moncton Center
11:44AM 42.9167 -60.7500 262° West 440 506 36,000  Level Moncton Center
11:45AM 42.9000 -60.9167 262° West 440 506 36,000  Level Moncton Center
11:46AM 42.8833 -61.1000 263° West 450 518 36,000  Level Moncton Center
11:47AM 42.8667 -61.2500 261° West 450 518 36,000  Level Moncton Center
11:48AM 42.8667 -61.4333 270° West 450 518 36,000  Level Moncton Center
11:49AM 42.8500 -61.6000 262° West 450 518 36,000  Level Moncton Center
11:50AM 42.8167 -61.7500 253° West 440 506 36,000  Level Moncton Center
11:51AM 42.8000 -61.9167 262° West 450 518 36,000  Level Moncton Center
11:52AM 42.8000 -62.1000 270° West 450 518 36,000  Level Moncton Center
11:53AM 42.7833 -62.2667 262° West 450 518 36,000  Level Moncton Center
11:54AM 42.7500 -62.4333 255° West 440 506 36,000  Level Moncton Center
11:55AM 42.7333 -62.6000 262° West 450 518 36,000  Level Moncton Center
11:56AM 42.7167 -62.7667 262° West 450 518 36,000  Level Moncton Center
11:57AM 42.7000 -62.9500 263° West 450 518 36,000  Level Moncton Center
11:58AM 42.6833 -63.1000 261° West 450 518 36,000  Level Moncton Center
11:59AM 42.6667 -63.2667 262° West 450 518 36,000  Level Moncton Center
12:00PM 42.6500 -63.4500 263° West 450 518 36,000  Level Moncton Center
12:01PM 42.6333 -63.6000 261° West 450 518 36,000  Level Moncton Center
12:02PM 42.6167 -63.7833 263° West 450 518 36,000  Level Moncton Center
12:03PM 42.5833 -63.9500 255° West 450 518 36,000  Level Moncton Center
12:04PM 42.5667 -64.1333 263° West 450 518 36,000  Level Moncton Center
12:05PM 42.5500 -64.2833 261° West 450 518 36,000  Level Moncton Center
12:06PM 42.5333 -64.4667 263° West 450 518 36,000  Level Moncton Center
12:07PM 42.5000 -64.6167 253° West 450 518 36,000  Level Moncton Center
12:08PM 42.4833 -64.8000 263° West 450 518 36,000  Level Moncton Center
12:09PM 42.4667 -64.9667 262° West 460 529 36,000  Level Moncton Center
12:10PM 42.4500 -65.1500 263° West 460 529 36,000  Level Moncton Center
12:11PM 42.4167 -65.3000 253° West 450 518 36,000  Level Moncton Center
12:12PM 42.4000 -65.4833 263° West 460 529 36,000  Level Moncton Center
12:13PM 42.3833 -65.6333 261° West 450 518 36,000  Level Moncton Center
12:14PM 42.3500 -65.8167 256° West 460 529 36,000  Level Moncton Center
12:15PM 42.3167 -65.9833 255° West 460 529 36,000  Level Moncton Center
12:16PM 42.3000 -66.1333 262° West 450 518 36,000  Level Moncton Center
12:22PM 42.1940 -67.1210 262° West 460 529 36,000  Level FlightAware
12:23PM 42.1900 -67.2250 267° West 460 529 36,000  Level FlightAware
12:24PM 42.1870 -67.3560 268° West 460 529 36,000  Level FlightAware
12:24PM 42.1830 -67.4740 267° West 459 528 36,000  Level FlightAware
12:25PM 42.1780 -67.6000 267° West 458 527 36,000  Level FlightAware
12:26PM 42.1750 -67.7130 268° West 458 527 36,000  Level FlightAware
12:26PM 42.1700 -67.8410 267° West 460 529 36,000  Level FlightAware
12:27PM 42.1660 -67.9440 267° West 460 529 36,000  Level FlightAware
12:28PM 42.1610 -68.0560 267° West 460 529 36,000  Level FlightAware
12:28PM 42.1560 -68.1840 267° West 460 529 36,000  Level FlightAware
12:29PM 42.1520 -68.2860 267° West 459 528 36,000  Level FlightAware
12:30PM 42.1460 -68.4420 267° West 458 527 36,000  Level FlightAware
12:31PM 42.1400 -68.5680 266° West 459 528 36,000  Level FlightAware
12:31PM 42.1360 -68.6700 267° West 457 526 36,000  Level FlightAware
12:32PM 42.1310 -68.7820 267° West 456 525 36,000  Level FlightAware
12:33PM 42.1250 -68.8970 266° West 455 524 36,000  Level FlightAware
12:33PM 42.1190 -69.0220 266° West 455 524 36,000  Level FlightAware
12:34PM 42.1150 -69.1240 267° West 455 524 36,000  Level FlightAware
12:35PM 42.1080 -69.2640 266° West 455 524 36,000  Level FlightAware
12:35PM 42.1020 -69.3780 266° West 456 525 36,000  Level FlightAware
12:36PM 42.0950 -69.5180 266° West 457 526 36,000  Level FlightAware
12:37PM 42.0890 -69.6270 266° West 457 526 36,000  Level FlightAware
12:38PM 42.0830 -69.7420 266° West 458 527 36,000  Level FlightAware
12:38PM 42.0760 -69.8730 266° West 458 527 36,000  Level FlightAware
12:39PM 42.0690 -69.9870 265° West 458 527 36,000  Level FlightAware
12:40PM 42.0620 -70.1120 266° West 456 525 36,000  Level FlightAware
12:40PM 42.0560 -70.2270 266° West 455 524 36,000  Level FlightAware
12:41PM 42.0490 -70.3390 265° West 455 524 36,000  Level FlightAware
12:42PM 42.0380 -70.4340 261° West 450 518 36,000  Level FlightAware
12:42PM 42.0090 -70.5400 250° West 447 514 36,000  Level FlightAware
12:43PM 41.9780 -70.6380 247° West 449 517 36,000  Level FlightAware
12:44PM 41.9310 -70.7840 247° West 449 517 36,000 -120 Level FlightAware
12:45PM 41.8870 -70.9160 246° West 442 509 35,800 -660 Descending FlightAware
12:46PM 41.8260 -71.0310 235° Southwest 442 509 34,900 -1,080 Descending FlightAware
12:47PM 41.7540 -71.1490 231° Southwest 445 512 34,000 -960 Descending FlightAware
12:47PM 41.7020 -71.2360 231° Southwest 445 512 33,400 -960 Descending FlightAware
12:48PM 41.6430 -71.3330 231° Southwest 440 506 32,700 -1,440 Descending FlightAware
12:49PM 41.5910 -71.4180 231° Southwest 439 505 31,400 -1,980 Descending FlightAware
12:49PM 41.5350 -71.5100 231° Southwest 421 484 29,900 -2,100 Descending FlightAware
12:50PM 41.4860 -71.5910 231° Southwest 412 474 28,500 -1,380 Descending FlightAware
12:51PM 41.4460 -71.6540 230° Southwest 415 478 28,200 -240 Descending FlightAware
12:51PM 41.3960 -71.7340 230° Southwest 415 478 28,200 -1,980 Level FlightAware
12:52PM 41.3503 -71.8069 230° Southwest 421 484 25,100 -1,440 Descending Boston Center
12:57PM 41.0180 -72.2890 230° Southwest 315 362 20,000 -1,200 Descending FlightAware
12:59PM 40.9900 -72.4570 258° West 304 350 17,300 -1,800 Descending FlightAware
12:59PM 40.9780 -72.5220 256° West 297 342 16,300 -1,080 Descending FlightAware
01:00PM 40.9670 -72.5820 256° West 296 341 16,000 -1,800 Descending FlightAware
01:01PM 40.9480 -72.6940 257° West 287 330 13,400 -2,160 Descending FlightAware
01:02PM 40.9310 -72.7840 256° West 282 325 11,900 -1,380 Descending FlightAware
01:02PM 40.9190 -72.8070 235° Southwest 276 318 11,800 -480 Descending FlightAware
01:03PM 40.8810 -72.8460 218° Southwest 283 326 11,500 -1,020 Descending FlightAware
01:04PM 40.8310 -72.8940 216° Southwest 283 326 10,400 -1,440 Descending FlightAware
01:04PM 40.8110 -72.9120 214° Southwest 283 326 10,000 -1,200 Descending FlightAware
01:04PM 40.7860 -72.9370 217° Southwest 281 323 9,500 -1,200 Descending FlightAware
01:05PM 40.7550 -72.9700 219° Southwest 275 316 8,900 -1,260 Descending FlightAware
01:05PM 40.7350 -72.9960 225° Southwest 272 313 8,400 -1,320 Descending FlightAware
01:06PM 40.7030 -73.0390 226° Southwest 265 305 7,700 -1,200 Descending FlightAware
01:06PM 40.6930 -73.0530 227° Southwest 265 305 7,500 -1,320 Descending FlightAware
01:06PM 40.6710 -73.0830 226° Southwest 264 304 6,900 -1,440 Descending FlightAware
01:07PM 40.6540 -73.1080 228° Southwest 263 303 6,400 -1,260 Descending FlightAware
01:07PM 40.6320 -73.1380 226° Southwest 262 302 5,900 -1,200 Descending FlightAware
01:08PM 40.6200 -73.1640 239° Southwest 262 302 5,500 -540 Descending FlightAware
01:08PM 40.6100 -73.2000 250° West 262 302 5,500 -1,320 Level FlightAware
01:08PM 40.6370 -73.2240 326° Northwest 275 316 4,600 -2,160 Descending FlightAware
01:09PM 40.6590 -73.2570 311° West 273 314 4,100 -1,140 Descending FlightAware
01:09PM 40.6740 -73.2800 311° West 271 312 3,800 -420 Descending FlightAware
01:10PM 40.6960 -73.3150 310° West 271 312 3,800 -360 Level FlightAware
01:10PM 40.7190 -73.3490 312° West 271 312 3,500 -660 Descending FlightAware
01:10PM 40.7440 -73.3870 311° West 272 313 3,200 -480 Descending FlightAware
01:11PM 40.7930 -73.4600 312° West 262 302 2,800 -420 Descending FlightAware
01:12PM 40.8050 -73.4780 311° West 250 288 2,700 -420 Descending FlightAware
01:12PM 40.8130 -73.4980 298° West 233 268 2,600 -720 Descending FlightAware
01:12PM 40.8140 -73.5130 275° West 227 261 2,400 -1,080 Descending FlightAware
01:13PM 40.8140 -73.5470 270° West 225 259 2,000 -720 Descending FlightAware
01:13PM 40.8060 -73.5820 253° West 222 255 1,800 -240 Descending FlightAware
01:13PM 40.7940 -73.6080 239° Southwest 207 238 1,800  Level FlightAware
01:14PM 40.7790 -73.6380 237° Southwest 175 201 1,800  Level FlightAware
01:14PM 40.7740 -73.6490 239° Southwest 173 199 1,800  Level FlightAware
01:14PM 40.7660 -73.6610 229° Southwest 171 197 1,800  Level FlightAware
01:15PM 40.7570 -73.6680 211° Southwest 171 197 1,800  Level FlightAware
01:15PM 40.7390 -73.6820 211° Southwest 171 197 1,800 -300 Level FlightAware
01:15PM 40.7240 -73.6940 211° Southwest 172 198 1,600 -900 Descending FlightAware
01:16PM 40.7150 -73.7000 207° Southwest 169 194 1,300 -900 Descending FlightAware
01:16PM 40.6960 -73.7150 211° Southwest 150 173 1,000 -780 Descending FlightAware
01:17PM 40.6790 -73.7280 210° Southwest 148 170 600 -900 Descending FlightAware
01:17PM 40.6630 -73.7410 212° Southwest 148 170 200 -900 Descending FlightAware
01:18PM 40.6450 -73.7550 211° Southwest 152 175 -420 Descending FlightAware
01:18PM 40.6320 -73.7650 210° Southwest 88 101  Level FlightAware
01:18PM 40.6300 -73.7670 217° Southwest 32 37  Level FlightAware
01:18PM 40.6290 -73.7690 237° Southwest 16 18  Level FlightAware